createdAt,value
2022-10-16T00:01:18.273Z,98798.72
2022-10-16T00:03:48.434Z,98804.03
2022-10-16T00:06:17.860Z,98803.94
2022-10-16T00:08:45.907Z,98808.28
2022-10-16T00:11:15.768Z,98800.31
2022-10-16T00:13:44.601Z,98798.72
2022-10-16T00:16:13.157Z,98789.16
2022-10-16T00:18:41.204Z,98783.97
2022-10-16T00:21:11.814Z,98794.56
2022-10-16T00:23:39.575Z,98798.81
2022-10-16T00:26:08.799Z,98797.31
2022-10-16T00:28:37.094Z,98804.31
2022-10-16T00:31:06.106Z,98799.22
2022-10-16T00:33:33.808Z,98799.22
2022-10-16T00:36:01.377Z,98807.28
2022-10-16T00:38:30.373Z,98807.06
2022-10-16T00:40:57.994Z,98800.72
2022-10-16T00:43:37.959Z,98800.53
2022-10-16T00:46:08.164Z,98806.47
2022-10-16T00:48:35.825Z,98807.03
2022-10-16T00:51:03.419Z,98804.72
2022-10-16T00:53:32.724Z,98818.09
2022-10-16T00:56:00.272Z,98813.84
2022-10-16T00:58:27.972Z,98813.09
2022-10-16T01:00:55.671Z,98813.94
2022-10-16T01:03:29.697Z,98808.84
2022-10-16T01:06:09.089Z,98810.63
2022-10-16T01:08:44.677Z,98809.88
2022-10-16T01:11:19.576Z,98809.97
2022-10-16T01:13:53.274Z,98815.38
2022-10-16T01:16:28.125Z,98807.38
2022-10-16T01:18:59.590Z,98826.28
2022-10-16T01:21:30.310Z,98830.66
2022-10-16T01:24:05.509Z,98827.34
2022-10-16T01:26:39.540Z,98830.00
2022-10-16T01:29:11.551Z,98828.38
2022-10-16T01:31:41.725Z,98822.53
2022-10-16T01:34:12.948Z,98821.28
2022-10-16T01:36:43.222Z,98814.47
2022-10-16T01:39:12.914Z,98823.19
2022-10-16T01:41:45.035Z,98832.84
2022-10-16T01:44:18.416Z,98836.91
2022-10-16T01:46:48.679Z,98834.06
2022-10-16T01:49:16.469Z,98834.91
2022-10-16T01:51:45.698Z,98829.59
2022-10-16T01:54:14.387Z,98832.34
2022-10-16T01:56:42.120Z,98829.59
2022-10-16T01:59:14.716Z,98835.00
2022-10-16T02:01:44.245Z,98832.56
2022-10-16T02:04:15.586Z,98839.56
2022-10-16T02:06:43.184Z,98839.34
2022-10-16T02:09:10.867Z,98846.81
2022-10-16T02:11:38.418Z,98849.56
2022-10-16T02:14:07.694Z,98848.72
2022-10-16T02:16:38.796Z,98856.09
2022-10-16T02:19:07.476Z,98857.69
2022-10-16T02:21:43.111Z,98849.56
2022-10-16T02:24:14.551Z,98847.13
2022-10-16T02:26:45.916Z,98849.13
2022-10-16T02:29:16.543Z,98844.66
2022-10-16T02:31:48.398Z,98856.13
2022-10-16T02:34:16.813Z,98870.53
2022-10-16T02:36:45.314Z,98867.56
2022-10-16T02:39:13.245Z,98863.03
2022-10-16T02:41:40.821Z,98858.78
2022-10-16T02:44:08.556Z,98851.00
2022-10-16T02:46:36.097Z,98857.06
2022-10-16T02:49:05.316Z,98857.66
2022-10-16T02:51:32.980Z,98858.72
2022-10-16T02:54:00.586Z,98865.91
2022-10-16T02:56:28.272Z,98868.56
2022-10-16T02:58:55.868Z,98865.25
2022-10-16T03:01:23.598Z,98861.56
2022-10-16T03:03:51.309Z,98863.44
2022-10-16T03:06:20.731Z,98867.72
2022-10-16T03:08:48.273Z,98865.16
2022-10-16T03:11:15.824Z,98866.94
2022-10-16T03:13:43.751Z,98870.56
2022-10-16T03:16:11.391Z,98882.97
2022-10-16T03:18:39.010Z,98875.75
2022-10-16T03:21:06.736Z,98872.34
2022-10-16T03:23:35.729Z,98873.50
2022-10-16T03:26:03.315Z,98879.16
2022-10-16T03:28:31.193Z,98867.81
2022-10-16T03:30:58.770Z,98860.81
2022-10-16T03:33:26.350Z,98857.94
2022-10-16T03:35:54.975Z,98875.19
2022-10-16T03:38:23.391Z,98879.75
2022-10-16T03:40:52.299Z,98884.94
2022-10-16T03:43:19.913Z,98893.09
2022-10-16T03:45:47.517Z,98891.47
2022-10-16T03:48:15.079Z,98880.41
2022-10-16T03:50:42.973Z,98884.00
2022-10-16T03:53:10.644Z,98892.81
2022-10-16T03:55:38.630Z,98888.34
2022-10-16T03:58:07.537Z,98891.19
2022-10-16T04:00:35.332Z,98890.53
2022-10-16T04:03:02.908Z,98892.16
2022-10-16T04:05:30.464Z,98881.25
2022-10-16T04:07:57.953Z,98880.50
2022-10-16T04:10:25.677Z,98867.63
2022-10-16T04:12:55.490Z,98875.59
2022-10-16T04:15:24.586Z,98873.88
2022-10-16T04:17:52.719Z,98875.22
2022-10-16T04:20:20.721Z,98879.56
2022-10-16T04:22:48.273Z,98882.41
2022-10-16T04:25:16.020Z,98889.50
2022-10-16T04:27:45.975Z,98891.59
2022-10-16T04:30:13.920Z,98889.69
2022-10-16T04:32:43.108Z,98892.44
2022-10-16T04:35:10.927Z,98903.13
2022-10-16T04:37:38.507Z,98900.59
2022-10-16T04:40:06.984Z,98902.28
2022-10-16T04:42:34.535Z,98911.28
2022-10-16T04:45:02.058Z,98906.84
2022-10-16T04:47:29.660Z,98909.28
2022-10-16T04:49:59.717Z,98912.13
2022-10-16T04:52:27.360Z,98912.13
2022-10-16T04:54:55.145Z,98907.78
2022-10-16T04:57:22.703Z,98911.19
2022-10-16T04:59:50.253Z,98913.84
2022-10-16T05:02:17.848Z,98902.19
2022-10-16T05:04:45.438Z,98909.19
2022-10-16T05:07:14.339Z,98903.91
2022-10-16T05:09:41.889Z,98913.09
2022-10-16T05:12:09.510Z,98911.66
2022-10-16T05:14:37.050Z,98913.38
2022-10-16T05:17:04.625Z,98905.31
2022-10-16T05:19:32.139Z,98904.47
2022-10-16T05:22:00.003Z,98907.41
2022-10-16T05:24:29.094Z,98904.09
2022-10-16T05:26:56.664Z,98922.72
2022-10-16T05:29:24.278Z,98913.81
2022-10-16T05:31:53.601Z,98911.94
2022-10-16T05:34:21.221Z,98923.09
2022-10-16T05:36:48.783Z,98932.66
2022-10-16T05:39:17.103Z,98931.81
2022-10-16T05:41:46.019Z,98936.16
2022-10-16T05:44:13.665Z,98934.38
2022-10-16T05:46:41.254Z,98944.69
2022-10-16T05:49:08.834Z,98942.03
2022-10-16T05:51:36.392Z,98942.81
2022-10-16T05:54:03.962Z,98945.34
2022-10-16T05:56:31.548Z,98951.91
2022-10-16T05:59:00.455Z,98953.88
2022-10-16T06:01:28.133Z,98954.81
2022-10-16T06:03:55.704Z,98952.19
2022-10-16T06:06:25.015Z,98958.44
2022-10-16T06:08:52.583Z,98959.94
2022-10-16T06:11:21.902Z,98950.28
2022-10-16T06:13:51.329Z,98951.03
2022-10-16T06:16:20.552Z,98954.72
2022-10-16T06:18:48.579Z,98949.44
2022-10-16T06:21:18.595Z,98946.88
2022-10-16T06:26:16.303Z,98967.13
2022-10-16T06:28:43.972Z,98964.50
2022-10-16T06:31:12.799Z,98964.84
2022-10-16T06:33:42.242Z,98964.75
2022-10-16T06:36:11.143Z,98968.84
2022-10-16T06:38:39.468Z,98976.13
2022-10-16T06:41:08.143Z,98983.13
2022-10-16T06:43:36.408Z,98982.28
2022-10-16T06:46:05.119Z,98981.16
2022-10-16T06:48:33.082Z,98982.66
2022-10-16T06:53:54.536Z,98990.44
2022-10-16T06:56:28.710Z,98991.28
2022-10-16T06:58:56.688Z,98995.66
2022-10-16T07:01:26.459Z,99005.41
2022-10-16T07:03:54.812Z,99006.06
2022-10-16T07:06:25.483Z,99008.72
2022-10-16T07:08:53.263Z,99005.22
2022-10-16T07:11:22.268Z,99006.91
2022-10-16T07:13:54.416Z,99006.63
2022-10-16T07:16:25.545Z,99010.91
2022-10-16T07:18:58.722Z,99011.75
2022-10-16T07:21:29.687Z,99021.22
2022-10-16T07:23:58.386Z,99021.88
2022-10-16T07:26:26.754Z,99022.53
2022-10-16T07:28:54.492Z,99032.03
2022-10-16T07:31:23.456Z,99030.13
2022-10-16T07:33:51.744Z,99035.25
2022-10-16T07:36:20.459Z,99037.63
2022-10-16T07:38:49.566Z,99038.28
2022-10-16T07:41:19.235Z,99036.28
2022-10-16T07:43:47.704Z,99047.66
2022-10-16T07:46:15.547Z,99051.91
2022-10-16T07:48:46.599Z,99063.97
2022-10-16T07:51:14.961Z,99061.59
2022-10-16T07:53:42.588Z,99067.38
2022-10-16T07:56:12.635Z,99057.34
2022-10-16T07:58:40.205Z,99088.22
2022-10-16T08:01:09.072Z,99090.59
2022-10-16T08:03:36.715Z,99101.03
2022-10-16T08:06:04.903Z,99113.81
2022-10-16T08:08:32.641Z,99106.81
2022-10-16T08:11:00.206Z,99106.25
2022-10-16T08:13:29.169Z,99097.16
2022-10-16T08:15:56.711Z,99103.31
2022-10-16T08:18:24.846Z,99116.38
2022-10-16T08:20:57.498Z,99119.22
2022-10-16T08:23:26.793Z,99120.84
2022-10-16T08:25:55.191Z,99116.09
2022-10-16T08:28:23.075Z,99114.78
2022-10-16T08:30:52.500Z,99123.41
2022-10-16T08:33:20.209Z,99126.53
2022-10-16T08:35:53.403Z,99134.97
2022-10-16T08:38:24.662Z,99131.56
2022-10-16T08:40:53.733Z,99140.19
2022-10-16T08:43:38.249Z,99148.34
2022-10-16T08:46:25.809Z,99155.53
2022-10-16T08:48:55.447Z,99157.53
2022-10-16T08:51:26.378Z,99154.59
2022-10-16T08:53:56.267Z,99155.16
2022-10-16T08:56:24.604Z,99154.13
2022-10-16T08:58:56.530Z,99161.31
2022-10-16T09:01:39.160Z,99169.19
2022-10-16T09:04:28.667Z,99169.75
2022-10-16T09:06:58.331Z,99171.03
2022-10-16T09:09:38.327Z,99165.44
2022-10-16T09:12:11.444Z,99164.50
2022-10-16T09:14:51.627Z,99170.47
2022-10-16T09:17:29.359Z,99188.69
2022-10-16T09:20:06.324Z,99190.97
2022-10-16T09:22:34.120Z,99194.00
2022-10-16T09:25:03.510Z,99194.31
2022-10-16T09:27:31.107Z,99191.94
2022-10-16T09:29:59.875Z,99199.44
2022-10-16T09:32:30.292Z,99199.25
2022-10-16T09:34:58.907Z,99196.03
2022-10-16T09:37:28.185Z,99203.59
2022-10-16T09:39:56.808Z,99194.78
2022-10-16T09:42:26.885Z,99203.31
2022-10-16T09:44:55.588Z,99207.38
2022-10-16T09:47:25.547Z,99201.63
2022-10-16T09:49:56.233Z,99215.25
2022-10-16T09:52:24.409Z,99217.63
2022-10-16T09:54:54.184Z,99218.84
2022-10-16T09:57:22.717Z,99210.94
2022-10-16T09:59:51.251Z,99220.38
2022-10-16T10:02:20.226Z,99216.44
2022-10-16T10:04:51.840Z,99218.97
2022-10-16T10:07:25.984Z,99218.47
2022-10-16T10:09:54.228Z,99221.56
2022-10-16T10:12:26.826Z,99220.00
2022-10-16T10:14:56.364Z,99222.56
2022-10-16T10:17:25.032Z,99215.75
2022-10-16T10:19:55.251Z,99218.69
2022-10-16T10:22:40.761Z,99216.47
2022-10-16T10:25:46.733Z,99211.09
2022-10-16T10:28:30.433Z,99214.31
2022-10-16T10:31:01.895Z,99206.22
2022-10-16T10:33:35.875Z,99220.13
2022-10-16T10:36:10.785Z,99216.59
2022-10-16T10:38:45.859Z,99223.50
2022-10-16T10:41:29.247Z,99225.00
2022-10-16T10:44:05.554Z,99216.56
2022-10-16T10:46:36.568Z,99221.16
2022-10-16T10:49:24.337Z,99222.44
2022-10-16T10:52:03.452Z,99224.47
2022-10-16T10:54:37.907Z,99221.63
2022-10-16T10:57:12.062Z,99225.16
2022-10-16T10:59:52.601Z,99221.75
2022-10-16T11:02:25.550Z,99229.31
2022-10-16T11:05:04.299Z,99223.47
2022-10-16T11:07:35.036Z,99219.53
2022-10-16T11:10:10.050Z,99224.31
2022-10-16T11:12:41.081Z,99220.13
2022-10-16T11:15:15.029Z,99223.88
2022-10-16T11:17:44.562Z,99222.16
2022-10-16T11:20:16.164Z,99221.72
2022-10-16T11:22:46.880Z,99224.25
2022-10-16T11:25:21.038Z,99227.13
2022-10-16T11:27:53.057Z,99223.91
2022-10-16T11:30:24.057Z,99212.25
2022-10-16T11:32:58.922Z,99210.91
2022-10-16T11:35:33.641Z,99205.50
2022-10-16T11:38:04.011Z,99199.59
2022-10-16T11:40:34.568Z,99206.44
2022-10-16T11:45:43.946Z,99197.75
2022-10-16T11:48:20.154Z,99202.28
2022-10-16T11:50:52.360Z,99207.84
2022-10-16T11:53:25.960Z,99215.59
2022-10-16T11:55:54.925Z,99206.19
2022-10-16T11:58:27.435Z,99204.59
2022-10-16T12:00:59.835Z,99209.00
2022-10-16T12:03:31.100Z,99198.47
2022-10-16T12:06:09.089Z,99210.28
2022-10-16T12:08:37.238Z,99201.31
2022-10-16T12:11:24.602Z,99197.03
2022-10-16T12:13:52.336Z,99205.06
2022-10-16T12:16:24.175Z,99203.75
2022-10-16T12:19:05.500Z,99206.41
2022-10-16T12:21:33.454Z,99207.25
2022-10-16T12:24:02.758Z,99209.81
2022-10-16T12:26:33.858Z,99204.19
2022-10-16T12:29:15.491Z,99193.88
2022-10-16T12:31:57.431Z,99209.94
2022-10-16T12:34:29.762Z,99211.63
2022-10-16T12:36:57.928Z,99211.38
2022-10-16T12:39:26.404Z,99207.88
2022-10-16T12:42:05.215Z,99206.16
2022-10-16T12:44:36.888Z,99206.63
2022-10-16T12:47:07.055Z,99204.06
2022-10-16T12:49:39.188Z,99212.84
2022-10-16T12:52:06.830Z,99206.63
2022-10-16T12:54:38.128Z,99216.13
2022-10-16T12:57:21.966Z,99217.09
2022-10-16T12:59:53.628Z,99208.09
2022-10-16T13:02:46.473Z,99213.06
2022-10-16T13:05:23.583Z,99219.66
2022-10-16T13:07:58.469Z,99215.88
2022-10-16T13:10:29.504Z,99219.91
2022-10-16T13:13:20.784Z,99221.22
2022-10-16T13:15:59.965Z,99231.81
2022-10-16T13:18:32.602Z,99235.81
2022-10-16T13:21:07.622Z,99232.78
2022-10-16T13:23:38.431Z,99228.41
2022-10-16T13:26:14.468Z,99224.13
2022-10-16T13:28:43.384Z,99224.13
2022-10-16T13:31:16.981Z,99223.28
2022-10-16T13:33:48.921Z,99210.66
2022-10-16T13:36:22.333Z,99205.91
2022-10-16T13:38:49.995Z,99201.53
2022-10-16T13:41:19.271Z,99196.66
2022-10-16T13:43:49.968Z,99184.91
2022-10-16T13:46:19.139Z,99191.44
2022-10-16T13:48:47.081Z,99200.66
2022-10-16T13:51:16.463Z,99197.16
2022-10-16T13:53:44.784Z,99198.00
2022-10-16T13:56:14.234Z,99201.28
2022-10-16T13:58:41.952Z,99201.03
2022-10-16T14:01:18.711Z,99203.00
2022-10-16T14:03:46.901Z,99208.44
2022-10-16T14:06:16.780Z,99202.63
2022-10-16T14:08:45.401Z,99212.47
2022-10-16T14:11:13.141Z,99212.47
2022-10-16T14:13:44.591Z,99208.59
2022-10-16T14:16:22.659Z,99211.75
2022-10-16T14:18:57.347Z,99211.75
2022-10-16T14:21:25.494Z,99217.81
2022-10-16T14:23:53.061Z,99217.69
2022-10-16T14:26:22.674Z,99214.41
2022-10-16T14:28:51.311Z,99218.56
2022-10-16T14:31:28.195Z,99209.19
2022-10-16T14:33:57.542Z,99212.09
2022-10-16T14:36:25.944Z,99213.69
2022-10-16T14:39:00.223Z,99212.59
2022-10-16T14:41:27.752Z,99213.94
2022-10-16T14:43:56.945Z,99218.19
2022-10-16T14:46:31.215Z,99213.69
2022-10-16T14:49:03.110Z,99216.72
2022-10-16T14:51:31.121Z,99220.47
2022-10-16T14:54:00.329Z,99218.66
2022-10-16T14:56:33.297Z,99220.25
2022-10-16T14:59:01.613Z,99222.41
2022-10-16T15:01:29.176Z,99225.97
2022-10-16T15:03:56.882Z,99222.91
2022-10-16T15:06:25.826Z,99221.09
2022-10-16T15:08:53.393Z,99223.41
2022-10-16T15:11:21.721Z,99230.69
2022-10-16T15:13:49.284Z,99220.59
2022-10-16T15:16:18.127Z,99225.19
2022-10-16T15:18:45.778Z,99229.56
2022-10-16T15:21:21.352Z,99229.81
2022-10-16T15:23:50.796Z,99233.66
2022-10-16T15:26:18.431Z,99236.66
2022-10-16T15:28:46.053Z,99241.28
2022-10-16T15:31:13.855Z,99239.34
2022-10-16T15:33:41.555Z,99242.97
2022-10-16T15:36:09.747Z,99241.13
2022-10-16T15:38:37.831Z,99240.50
2022-10-16T15:41:07.101Z,99227.63
2022-10-16T15:43:34.655Z,99231.53
2022-10-16T15:46:03.493Z,99234.94
2022-10-16T15:48:31.842Z,99233.47
2022-10-16T15:50:59.375Z,99229.38
2022-10-16T15:53:27.153Z,99240.13
2022-10-16T15:55:54.722Z,99235.34
2022-10-16T15:58:23.670Z,99235.63
2022-10-16T16:00:56.821Z,99242.06
2022-10-16T16:03:24.476Z,99243.72
2022-10-16T16:05:52.011Z,99237.88
2022-10-16T16:08:19.636Z,99245.66
2022-10-16T16:10:48.193Z,99240.16
2022-10-16T16:13:15.780Z,99238.66
2022-10-16T16:15:44.815Z,99231.84
2022-10-16T16:18:12.439Z,99240.94
2022-10-16T16:20:40.014Z,99239.81
2022-10-16T16:23:07.576Z,99236.84
2022-10-16T16:25:35.155Z,99233.00
2022-10-16T16:28:02.765Z,99233.56
2022-10-16T16:30:30.449Z,99245.31
2022-10-16T16:32:59.336Z,99242.97
2022-10-16T16:35:26.866Z,99244.78
2022-10-16T16:37:54.460Z,99246.72
2022-10-16T16:40:22.101Z,99249.38
2022-10-16T16:42:50.168Z,99241.69
2022-10-16T16:45:17.794Z,99235.50
2022-10-16T16:47:45.447Z,99232.94
2022-10-16T16:50:14.353Z,99247.88
2022-10-16T16:52:41.928Z,99240.41
2022-10-16T16:55:10.347Z,99248.53
2022-10-16T16:57:37.881Z,99253.34
2022-10-16T17:00:07.063Z,99255.16
2022-10-16T17:02:34.723Z,99265.81
2022-10-16T17:05:02.298Z,99267.41
2022-10-16T17:07:35.425Z,99264.66
2022-10-16T17:10:03.359Z,99269.91
2022-10-16T17:12:30.991Z,99265.53
2022-10-16T17:14:58.551Z,99262.47
2022-10-16T17:17:26.400Z,99258.53
2022-10-16T17:19:54.379Z,99263.22
2022-10-16T17:22:21.946Z,99265.47
2022-10-16T17:24:54.767Z,99269.41
2022-10-16T17:27:23.555Z,99275.03
2022-10-16T17:29:52.502Z,99265.56
2022-10-16T17:32:20.666Z,99278.44
2022-10-16T17:34:48.286Z,99273.44
2022-10-16T17:37:18.090Z,99286.97
2022-10-16T17:39:45.929Z,99283.34
2022-10-16T17:42:14.776Z,99289.31
2022-10-16T17:44:42.345Z,99292.84
2022-10-16T17:47:09.936Z,99289.00
2022-10-16T17:49:37.601Z,99309.25
2022-10-16T17:52:05.430Z,99310.72
2022-10-16T17:54:32.988Z,99306.91
2022-10-16T17:57:00.556Z,99307.19
2022-10-16T17:59:29.619Z,99310.91
2022-10-16T18:01:57.265Z,99317.78
2022-10-16T18:04:24.949Z,99315.84
2022-10-16T18:06:52.539Z,99312.22
2022-10-16T18:09:20.849Z,99324.09
2022-10-16T18:11:49.124Z,99322.28
2022-10-16T18:14:18.402Z,99323.31
2022-10-16T18:16:47.365Z,99325.75
2022-10-16T18:19:15.046Z,99323.28
2022-10-16T18:21:42.606Z,99324.13
2022-10-16T18:24:10.463Z,99323.56
2022-10-16T18:26:38.370Z,99326.03
2022-10-16T18:29:06.674Z,99325.47
2022-10-16T18:31:37.757Z,99337.00
2022-10-16T18:34:09.710Z,99330.94
2022-10-16T18:36:38.106Z,99336.34
2022-10-16T18:39:09.376Z,99320.97
2022-10-16T18:41:38.403Z,99337.50
2022-10-16T18:44:07.137Z,99338.44
2022-10-16T18:46:34.880Z,99342.16
2022-10-16T18:49:02.504Z,99338.28
2022-10-16T18:51:33.173Z,99335.81
2022-10-16T18:54:02.417Z,99331.34
2022-10-16T18:56:31.664Z,99328.88
2022-10-16T18:59:00.856Z,99335.16
2022-10-16T19:01:30.801Z,99326.22
2022-10-16T19:04:00.605Z,99331.72
2022-10-16T19:06:29.157Z,99328.50
2022-10-16T19:08:58.484Z,99344.19
2022-10-16T19:11:27.153Z,99336.56
2022-10-16T19:13:55.641Z,99335.97
2022-10-16T19:16:25.111Z,99343.09
2022-10-16T19:18:54.549Z,99348.41
2022-10-16T19:21:23.608Z,99346.81
2022-10-16T19:23:53.134Z,99353.94
2022-10-16T19:26:23.530Z,99350.03
2022-10-16T19:28:53.440Z,99360.56
2022-10-16T19:31:22.818Z,99362.66
2022-10-16T19:33:52.618Z,99354.69
2022-10-16T19:36:23.328Z,99369.50
2022-10-16T19:38:54.980Z,99368.38
2022-10-16T19:41:24.665Z,99374.91
2022-10-16T19:43:52.763Z,99362.38
2022-10-16T19:46:23.052Z,99375.03
2022-10-16T19:48:50.707Z,99369.91
2022-10-16T19:51:20.314Z,99375.41
2022-10-16T19:53:48.518Z,99376.06
2022-10-16T19:56:17.727Z,99379.47
2022-10-16T19:58:47.598Z,99376.03
2022-10-16T20:01:16.502Z,99377.56
2022-10-16T20:03:44.871Z,99381.06
2022-10-16T20:06:12.970Z,99377.56
2022-10-16T20:08:42.159Z,99376.22
2022-10-16T20:11:11.973Z,99379.84
2022-10-16T20:13:41.646Z,99375.00
2022-10-16T20:16:13.128Z,99375.94
2022-10-16T20:18:40.978Z,99372.34
2022-10-16T20:21:12.373Z,99371.66
2022-10-16T20:23:40.547Z,99375.28
2022-10-16T20:26:11.417Z,99371.09
2022-10-16T20:28:40.381Z,99378.88
2022-10-16T20:31:09.766Z,99372.22
2022-10-16T20:33:38.738Z,99376.59
2022-10-16T20:36:12.441Z,99383.72
2022-10-16T20:38:40.876Z,99384.75
2022-10-16T20:41:09.823Z,99379.81
2022-10-16T20:43:40.490Z,99390.53
2022-10-16T20:46:09.812Z,99390.63
2022-10-16T20:48:41.090Z,99377.81
2022-10-16T20:51:13.476Z,99391.09
2022-10-16T20:53:41.208Z,99394.03
2022-10-16T20:56:09.799Z,99396.03
2022-10-16T20:58:37.976Z,99398.50
2022-10-16T21:01:07.024Z,99398.50
2022-10-16T21:03:34.989Z,99394.53
2022-10-16T21:06:05.426Z,99397.38
2022-10-16T21:08:36.167Z,99401.25
2022-10-16T21:11:11.811Z,99413.22
2022-10-16T21:13:39.779Z,99407.66
2022-10-16T21:16:08.073Z,99411.34
2022-10-16T21:18:37.895Z,99413.81
2022-10-16T21:21:08.729Z,99417.81
2022-10-16T21:23:36.754Z,99411.66
2022-10-16T21:26:05.493Z,99410.03
2022-10-16T21:28:33.785Z,99419.78
2022-10-16T21:31:11.810Z,99418.16
2022-10-16T21:33:39.621Z,99410.13
2022-10-16T21:36:15.509Z,99408.75
2022-10-16T21:38:43.203Z,99413.22
2022-10-16T21:41:15.754Z,99406.88
2022-10-16T21:43:43.776Z,99402.59
2022-10-16T21:46:11.566Z,99406.28
2022-10-16T21:48:39.847Z,99407.13
2022-10-16T21:51:07.591Z,99413.56
2022-10-16T21:53:36.652Z,99404.91
2022-10-16T21:56:04.959Z,99403.22
2022-10-16T21:58:33.700Z,99403.28
2022-10-16T22:01:08.279Z,99397.22
2022-10-16T22:03:36.533Z,99404.22
2022-10-16T22:06:06.824Z,99398.94
2022-10-16T22:08:38.408Z,99400.81
2022-10-16T22:11:07.955Z,99402.44
2022-10-16T22:13:41.237Z,99409.47
2022-10-16T22:16:10.196Z,99411.94
2022-10-16T22:18:40.229Z,99411.94
2022-10-16T22:21:11.141Z,99412.97
2022-10-16T22:23:40.862Z,99421.78
2022-10-16T22:26:10.961Z,99429.06
2022-10-16T22:28:39.826Z,99427.75
2022-10-16T22:31:09.928Z,99425.09
2022-10-16T22:33:39.826Z,99432.47
2022-10-16T22:36:12.296Z,99434.84
2022-10-16T22:38:42.578Z,99429.38
2022-10-16T22:41:12.692Z,99429.56
2022-10-16T22:43:43.047Z,99429.91
2022-10-16T22:46:13.795Z,99419.56
2022-10-16T22:48:42.898Z,99430.19
2022-10-16T22:51:16.880Z,99425.09
2022-10-16T22:53:48.030Z,99429.72
2022-10-16T22:56:17.643Z,99439.47
2022-10-16T22:58:46.059Z,99434.44
2022-10-16T23:01:15.857Z,99442.47
2022-10-16T23:03:46.776Z,99450.53
2022-10-16T23:06:22.546Z,99448.03
2022-10-16T23:08:54.764Z,99448.72
2022-10-16T23:11:23.934Z,99449.66
2022-10-16T23:13:52.530Z,99457.53
2022-10-16T23:16:26.907Z,99459.50
2022-10-16T23:18:55.371Z,99460.53
2022-10-16T23:21:25.506Z,99454.78
2022-10-16T23:23:55.956Z,99461.44
2022-10-16T23:26:25.500Z,99457.25
2022-10-16T23:28:53.762Z,99456.31
2022-10-16T23:31:22.051Z,99452.47
2022-10-16T23:33:50.233Z,99457.78
2022-10-16T23:36:22.943Z,99459.50
2022-10-16T23:38:51.978Z,99459.41
2022-10-16T23:41:22.347Z,99465.41
2022-10-16T23:43:51.472Z,99465.50
2022-10-16T23:46:19.930Z,99467.44
2022-10-16T23:48:48.409Z,99460.28
2022-10-16T23:51:16.758Z,99471.41
2022-10-16T23:53:45.245Z,99466.28
2022-10-16T23:56:13.860Z,99458.47
2022-10-16T23:58:43.273Z,99456.41
